Time;durP1;ratioP1;P1;durP2;ratioP2;P2;SDS_P1;SDS_P2;PMS_P1;PMS_P2;Temp;Humidity;BMP_temperature;BMP_pressure;BME280_temperature;BME280_humidity;BME280_pressure;Samples;Min_cycle;Max_cycle;Signal;HPM_P1;HPM_P2
2021/10/28 00:13:42;;;;;;;11.80;7.60;;;;;;;5.71;86.76;101462.28;4994915;28;20188;-81
2021/10/28 00:16:19;;;;;;;9.73;7.00;;;;;;;5.64;86.23;101462.97;4996871;28;20038;-81
2021/10/28 00:18:47;;;;;;;10.20;7.63;;;;;;;5.59;86.70;101464.56;4997103;28;20034;-81
2021/10/28 00:21:13;;;;;;;10.57;7.00;;;;;;;5.51;86.25;101461.72;4995543;28;20042;-81
2021/10/28 00:23:44;;;;;;;18.80;12.27;;;;;;;5.52;87.05;101460.88;4985113;28;20030;-80
2021/10/28 00:26:11;;;;;;;11.27;7.90;;;;;;;5.54;88.27;101456.56;4979728;28;20046;-81
2021/10/28 00:28:37;;;;;;;12.50;9.52;;;;;;;5.55;87.95;101460.06;4979252;28;20034;-82
2021/10/28 00:31:04;;;;;;;9.95;7.78;;;;;;;5.58;88.36;101462.78;4980780;28;20018;-81
2021/10/28 00:33:31;;;;;;;9.60;7.13;;;;;;;5.59;88.51;101460.22;4998935;28;20058;-81
2021/10/28 00:35:59;;;;;;;12.93;8.75;;;;;;;5.57;87.83;101461.00;4996976;28;20556;-81
2021/10/28 00:38:26;;;;;;;10.00;7.82;;;;;;;5.53;88.21;101448.66;4978289;28;20085;-80
2021/10/28 00:40:52;;;;;;;9.50;7.00;;;;;;;5.51;87.67;101451.25;4996009;28;20517;-80
2021/10/28 00:43:17;;;;;;;18.88;12.85;;;;;;;5.47;87.59;101450.25;4978484;28;20504;-80
2021/10/28 00:45:43;;;;;;;12.93;9.50;;;;;;;5.44;88.41;101449.28;4996169;28;20106;-80
2021/10/28 00:48:08;;;;;;;13.80;9.05;;;;;;;5.40;87.76;101457.91;4996129;28;20057;-81
2021/10/28 00:50:34;;;;;;;10.15;7.22;;;;;;;5.36;87.57;101454.28;4978568;28;20038;-81
2021/10/28 00:53:00;;;;;;;10.48;7.15;;;;;;;5.35;87.73;101447.28;4996318;28;20035;-81
2021/10/28 00:55:26;;;;;;;9.80;7.53;;;;;;;5.36;87.77;101448.16;4978712;28;20638;-80
2021/10/28 00:57:53;;;;;;;9.60;7.22;;;;;;;5.35;87.30;101449.03;4991899;28;20168;-80
2021/10/28 01:00:19;;;;;;;10.35;7.30;;;;;;;5.33;87.20;101456.81;4991921;28;20513;-80
2021/10/28 01:02:45;;;;;;;9.95;7.03;;;;;;;5.31;87.18;101452.38;4995586;28;20062;-80
2021/10/28 01:05:11;;;;;;;10.25;7.38;;;;;;;5.27;87.59;101446.19;4995420;28;20034;-80
2021/10/28 01:07:37;;;;;;;10.40;7.60;;;;;;;5.24;86.82;101456.56;4977967;28;20405;-80
2021/10/28 01:10:03;;;;;;;10.02;7.47;;;;;;;5.20;87.09;101455.56;4978670;28;20048;-79
2021/10/28 01:12:28;;;;;;;8.63;6.50;;;;;;;5.18;86.96;101456.34;4995504;28;20042;-80
2021/10/28 01:14:55;;;;;;;10.18;6.80;;;;;;;5.15;87.02;101457.16;4977730;28;20416;-80
2021/10/28 01:17:21;;;;;;;9.43;6.57;;;;;;;5.11;87.17;101447.44;4978154;28;20518;-80
2021/10/28 01:19:52;;;;;;;11.52;8.25;;;;;;;5.06;86.88;101456.88;4995650;28;20052;-80
2021/10/28 01:22:18;;;;;;;11.43;8.45;;;;;;;5.00;87.08;101452.34;4977699;28;20130;-80
2021/10/28 01:24:43;;;;;;;12.90;8.30;;;;;;;4.96;86.95;101455.69;4974855;28;20054;-80
2021/10/28 01:27:09;;;;;;;16.00;7.40;;;;;;;4.93;86.96;101454.72;4995210;28;20038;-81
2021/10/28 01:29:36;;;;;;;10.15;7.55;;;;;;;4.86;87.47;101453.63;4995337;28;20037;-80
2021/10/28 01:32:02;;;;;;;10.57;7.53;;;;;;;4.82;87.17;101465.72;4977890;28;20042;-80
2021/10/28 01:34:27;;;;;;;9.98;7.15;;;;;;;4.78;87.72;101460.34;4995142;28;20397;-81
2021/10/28 01:36:55;;;;;;;8.57;6.03;;;;;;;4.75;87.73;101450.66;4978244;28;20046;-80
2021/10/28 01:39:24;;;;;;;30.33;8.63;;;;;;;4.76;87.35;101449.81;4995849;28;20052;-81
2021/10/28 01:41:53;;;;;;;26.80;8.45;;;;;;;4.69;87.47;101444.34;4992064;28;20106;-81
2021/10/28 01:44:19;;;;;;;10.70;6.97;;;;;;;4.61;87.21;101446.69;4994927;28;20044;-81
2021/10/28 01:46:45;;;;;;;8.43;5.75;;;;;;;4.55;87.16;101444.78;4995301;28;20038;-81
2021/10/28 01:49:24;;;;;;;9.20;6.50;;;;;;;4.54;86.87;101437.78;4995357;28;20424;-81
2021/10/28 01:51:53;;;;;;;16.48;7.13;;;;;;;4.55;87.36;101441.28;4983945;28;20086;-81
2021/10/28 01:54:19;;;;;;;137.23;16.67;;;;;;;4.61;87.72;101441.47;4977981;28;20046;-81
2021/10/28 01:56:46;;;;;;;18.77;9.77;;;;;;;4.59;88.06;101437.94;4977583;28;20030;-81
2021/10/28 01:59:11;;;;;;;8.43;5.47;;;;;;;4.50;87.20;101443.75;4995175;28;20117;-81
2021/10/28 02:01:36;;;;;;;8.30;5.30;;;;;;;4.40;86.95;101436.44;4977718;28;20117;-81
2021/10/28 02:04:03;;;;;;;12.77;7.90;;;;;;;4.31;87.05;101434.41;4994777;28;20038;-80
2021/10/28 02:06:28;;;;;;;7.80;4.75;;;;;;;4.23;86.93;101433.25;4998088;28;20049;-80
2021/10/28 02:08:54;;;;;;;8.38;5.55;;;;;;;4.19;87.09;101433.97;4996605;28;20042;-79
2021/10/28 02:11:20;;;;;;;9.55;7.00;;;;;;;4.18;87.37;101435.69;4993166;28;20034;-80
2021/10/28 02:13:46;;;;;;;11.18;7.07;;;;;;;4.14;87.10;101435.56;4995680;28;20038;-79
2021/10/28 02:16:13;;;;;;;8.90;5.63;;;;;;;4.11;87.17;101433.75;4998848;28;20034;-80
2021/10/28 02:18:38;;;;;;;11.65;7.43;;;;;;;4.13;87.24;101428.56;4977179;28;20045;-80
2021/10/28 02:21:03;;;;;;;11.52;7.25;;;;;;;4.12;86.83;101434.63;4994017;28;20035;-79
2021/10/28 02:23:29;;;;;;;9.25;6.93;;;;;;;4.13;87.08;101437.28;4993932;28;20030;-79
2021/10/28 02:25:54;;;;;;;10.52;6.72;;;;;;;4.10;87.31;101431.06;4994028;28;20038;-79
2021/10/28 02:28:19;;;;;;;10.35;6.55;;;;;;;4.07;87.34;101438.81;4993773;28;20439;-80
2021/10/28 02:30:45;;;;;;;10.30;6.75;;;;;;;4.03;86.55;101439.50;4976686;28;20034;-79
2021/10/28 02:33:11;;;;;;;11.45;8.02;;;;;;;4.01;87.16;101433.34;4992615;28;20117;-80
2021/10/28 02:35:36;;;;;;;10.98;7.03;;;;;;;3.99;86.93;101433.31;4993247;28;20092;-81
2021/10/28 02:38:02;;;;;;;8.85;5.78;;;;;;;3.96;86.87;101430.59;4993647;28;20034;-79
2021/10/28 02:40:29;;;;;;;8.88;6.20;;;;;;;3.96;86.56;101427.97;4972603;28;20064;-80
2021/10/28 02:42:55;;;;;;;10.52;6.93;;;;;;;3.95;86.31;101429.69;4980804;28;20026;-80
2021/10/28 02:45:21;;;;;;;10.00;7.03;;;;;;;3.91;86.67;101424.31;4980763;28;20034;-80
2021/10/28 02:47:49;;;;;;;8.55;6.05;;;;;;;3.91;86.50;101426.94;4995365;28;20050;-81
2021/10/28 02:50:14;;;;;;;11.27;7.47;;;;;;;3.93;87.33;101431.38;4976603;28;20038;-81
2021/10/28 02:52:44;;;;;;;9.75;6.80;;;;;;;3.95;87.61;101419.22;4993889;28;20030;-81
2021/10/28 02:55:09;;;;;;;9.50;6.03;;;;;;;3.96;87.91;101427.97;4993733;28;20046;-80
2021/10/28 02:57:34;;;;;;;8.65;5.78;;;;;;;3.96;87.22;101425.38;4993798;28;20038;-80
2021/10/28 03:00:00;;;;;;;9.98;6.75;;;;;;;3.91;87.35;101417.38;4993856;28;20042;-81
2021/10/28 03:02:26;;;;;;;8.88;5.82;;;;;;;3.92;87.02;101418.25;4993381;28;20046;-81
2021/10/28 03:04:52;;;;;;;9.27;5.90;;;;;;;3.90;86.57;101420.81;4993960;28;20077;-80
2021/10/28 03:07:17;;;;;;;9.20;6.38;;;;;;;3.85;86.44;101425.00;4994104;28;20065;-81
2021/10/28 03:09:42;;;;;;;11.75;7.50;;;;;;;3.82;87.04;101430.06;4994395;28;20034;-80
2021/10/28 03:12:08;;;;;;;13.32;7.20;;;;;;;3.80;87.11;101430.84;4997256;28;20038;-80
2021/10/28 03:14:43;;;;;;;9.35;6.28;;;;;;;3.75;87.22;101422.88;4979200;28;20041;-81
2021/10/28 03:17:34;;;;;;;9.95;6.63;;;;;;;3.68;86.27;101429.59;4997315;28;20108;-80
2021/10/28 03:27:48;;;;;;;8.68;5.93;;;;;;;3.66;86.55;101425.16;4979849;28;20412;-80
2021/10/28 03:30:13;;;;;;;10.10;6.90;;;;;;;3.65;86.52;101431.22;4981051;28;20045;-80
2021/10/28 03:32:39;;;;;;;10.57;6.75;;;;;;;3.61;86.63;101427.59;4986834;28;20038;-78
2021/10/28 03:35:08;;;;;;;11.05;6.47;;;;;;;3.58;86.30;101430.09;4988005;28;20061;-79
2021/10/28 03:37:40;;;;;;;10.73;6.68;;;;;;;3.58;86.82;101429.22;5006599;28;20490;-79
2021/10/28 03:40:23;;;;;;;10.05;6.97;;;;;;;3.53;86.50;101423.81;4989350;28;20076;-79
2021/10/28 03:43:14;;;;;;;9.38;6.22;;;;;;;3.50;86.74;101421.97;4983083;28;20069;-79
2021/10/28 03:48:42;;;;;;;13.55;8.10;;;;;;;3.58;87.91;101426.59;4995112;28;20057;-79
2021/10/28 03:51:38;;;;;;;13.65;9.32;;;;;;;3.60;87.76;101424.94;4983598;28;20374;-80
2021/10/28 04:03:23;;;;;;;14.15;9.25;;;;;;;3.49;86.91;101417.59;4974280;28;20138;-79
2021/10/28 04:18:41;;;;;;;24.20;14.55;;;;;;;3.35;86.60;101405.75;4978729;28;20046;-80
2021/10/28 04:21:15;;;;;;;18.02;10.88;;;;;;;3.33;86.51;101414.34;4973467;28;20510;-80
2021/10/28 04:29:14;;;;;;;17.48;11.57;;;;;;;3.32;86.36;101407.38;4976190;28;20037;-80
2021/10/28 04:31:39;;;;;;;16.73;9.52;;;;;;;3.28;86.36;101411.59;4996340;28;20046;-80
2021/10/28 04:34:07;;;;;;;20.48;12.05;;;;;;;3.28;86.74;101409.00;5000708;28;20042;-80
2021/10/28 04:36:33;;;;;;;26.00;15.63;;;;;;;3.28;87.00;101401.16;4993005;28;20496;-79
2021/10/28 04:39:03;;;;;;;28.58;17.02;;;;;;;3.32;86.75;101404.75;4995356;28;20046;-79
2021/10/28 04:41:28;;;;;;;24.60;16.02;;;;;;;3.31;86.25;101409.09;4977538;28;20078;-80
2021/10/28 04:43:54;;;;;;;35.55;18.55;;;;;;;3.22;86.68;101403.50;4977765;28;20117;-80
2021/10/28 04:46:19;;;;;;;30.42;15.88;;;;;;;3.16;86.97;101403.28;4995217;28;20386;-80
2021/10/28 04:48:46;;;;;;;26.45;15.05;;;;;;;3.15;86.65;101406.75;4977975;28;20082;-80
2021/10/28 04:51:12;;;;;;;26.98;15.75;;;;;;;3.13;86.70;101406.69;4977538;28;20030;-80
2021/10/28 04:53:37;;;;;;;36.83;19.98;;;;;;;3.15;86.88;101406.75;4994632;28;20038;-80
2021/10/28 04:56:03;;;;;;;32.03;17.73;;;;;;;3.20;87.16;101415.63;4995640;28;20528;-80
2021/10/28 04:58:29;;;;;;;40.75;21.00;;;;;;;3.21;87.36;101397.41;4977812;28;20030;-80
2021/10/28 05:00:54;;;;;;;34.85;19.77;;;;;;;3.26;87.24;101408.03;4995316;28;20616;-80
2021/10/28 05:03:19;;;;;;;59.95;24.67;;;;;;;3.26;86.81;101395.88;4994602;28;20405;-80
2021/10/28 05:05:45;;;;;;;51.17;25.50;;;;;;;3.28;87.14;101401.16;4995345;28;20041;-81
2021/10/28 05:08:11;;;;;;;38.88;21.92;;;;;;;3.31;87.17;101403.88;4974747;28;20077;-81
2021/10/28 05:10:40;;;;;;;42.20;19.98;;;;;;;3.34;87.02;101408.31;5002993;28;20066;-80
2021/10/28 05:13:05;;;;;;;39.90;22.65;;;;;;;3.31;86.79;101406.50;4983619;28;20026;-80
2021/10/28 05:15:31;;;;;;;40.20;20.58;;;;;;;3.31;87.04;101409.09;4999341;28;20037;-80
2021/10/28 05:17:56;;;;;;;42.15;22.10;;;;;;;3.32;87.11;101407.38;4997418;28;20049;-80
2021/10/28 05:20:22;;;;;;;46.28;23.42;;;;;;;3.34;87.17;101411.81;4993029;28;20042;-80
2021/10/28 05:22:47;;;;;;;40.40;23.63;;;;;;;3.33;87.14;101412.66;4977100;28;20057;-80
2021/10/28 05:25:12;;;;;;;35.92;20.08;;;;;;;3.33;87.32;101407.44;4994643;28;20145;-80
2021/10/28 05:27:38;;;;;;;44.72;21.48;;;;;;;3.28;86.63;101403.78;4994375;28;20034;-80
2021/10/28 05:30:04;;;;;;;38.03;20.33;;;;;;;3.27;86.84;101409.78;4994724;28;20078;-80
2021/10/28 05:32:29;;;;;;;31.33;19.25;;;;;;;3.27;86.94;101409.78;4976105;28;20042;-80
2021/10/28 05:34:59;;;;;;;35.35;20.65;;;;;;;3.27;87.06;101415.00;4994881;28;20114;-80
2021/10/28 05:37:25;;;;;;;34.05;19.40;;;;;;;3.27;87.09;101420.22;4994575;28;20084;-80
2021/10/28 05:39:51;;;;;;;31.27;18.70;;;;;;;3.25;86.61;101414.97;4994135;28;20038;-80
2021/10/28 05:42:16;;;;;;;149.85;24.27;;;;;;;3.24;86.81;101418.41;4976768;28;20041;-80
2021/10/28 05:44:41;;;;;;;25.50;17.20;;;;;;;3.24;86.77;101417.50;4994393;28;20470;-80
2021/10/28 05:47:07;;;;;;;31.85;18.70;;;;;;;3.20;86.28;101413.03;4993916;28;20481;-80
2021/10/28 05:49:32;;;;;;;28.83;18.40;;;;;;;3.16;86.32;101418.94;4993859;28;20034;-80
2021/10/28 05:51:58;;;;;;;31.98;18.75;;;;;;;3.14;86.64;101416.28;4994171;28;20030;-79
2021/10/28 05:54:23;;;;;;;32.35;19.77;;;;;;;3.16;86.25;101413.72;4993953;28;20037;-80
2021/10/28 05:56:48;;;;;;;38.33;21.63;;;;;;;3.17;86.46;101407.66;4976673;28;20042;-80
2021/10/28 05:59:13;;;;;;;34.00;21.65;;;;;;;3.13;86.12;101408.41;4976737;28;20105;-80
2021/10/28 06:01:39;;;;;;;37.38;21.02;;;;;;;3.08;86.24;101403.88;4994511;28;20041;-80
2021/10/28 06:04:05;;;;;;;39.75;22.00;;;;;;;3.08;86.37;101406.50;4976336;28;20181;-79
2021/10/28 06:06:31;;;;;;;33.42;20.50;;;;;;;3.12;86.32;101404.00;4960240;28;20491;-80
2021/10/28 06:08:56;;;;;;;44.20;24.70;;;;;;;3.14;86.33;101400.63;4976199;28;20069;-80
2021/10/28 06:11:21;;;;;;;51.78;20.73;;;;;;;3.13;86.34;101395.34;4993657;28;20046;-80
2021/10/28 06:13:48;;;;;;;28.98;18.23;;;;;;;3.13;86.26;101398.84;4991834;28;20038;-80
2021/10/28 06:16:14;;;;;;;31.52;20.45;;;;;;;3.18;86.32;101401.63;4976145;28;20488;-80
2021/10/28 06:18:43;;;;;;;31.98;20.42;;;;;;;3.20;86.15;101394.78;4976705;28;20045;-80
2021/10/28 06:21:10;;;;;;;30.58;20.35;;;;;;;3.22;86.13;101398.31;4993790;28;20038;-80
2021/10/28 06:23:37;;;;;;;34.58;22.30;;;;;;;3.23;86.63;101393.16;4993837;28;20102;-81
2021/10/28 06:26:03;;;;;;;33.42;21.25;;;;;;;3.25;86.67;101394.09;4976807;28;20750;-80
2021/10/28 06:28:28;;;;;;;35.42;21.33;;;;;;;3.28;86.38;101403.78;4975671;28;20121;-80
2021/10/28 06:30:54;;;;;;;38.90;20.88;;;;;;;3.28;86.07;101406.38;4994405;28;20037;-80
2021/10/28 06:33:25;;;;;;;47.40;23.42;;;;;;;3.27;86.46;101402.88;4972683;28;20504;-80
2021/10/28 06:35:51;;;;;;;36.60;23.63;;;;;;;3.32;86.31;101408.25;4990699;28;20050;-80
2021/10/28 06:38:16;;;;;;;33.35;21.33;;;;;;;3.32;86.29;101405.63;4976384;28;20034;-80
2021/10/28 06:40:41;;;;;;;37.22;22.65;;;;;;;3.42;86.45;101402.53;4993401;28;20046;-80
2021/10/28 06:43:07;;;;;;;44.10;23.40;;;;;;;3.49;86.47;101407.16;4993741;28;20037;-80
2021/10/28 06:45:34;;;;;;;45.88;21.70;;;;;;;3.54;86.63;101399.50;4979423;28;20042;-80
2021/10/28 06:48:00;;;;;;;45.00;23.35;;;;;;;3.61;86.39;101396.25;4997627;28;20121;-80
2021/10/28 06:50:29;;;;;;;51.30;23.95;;;;;;;3.70;86.84;101398.34;4997458;28;20041;-80
2021/10/28 06:53:08;;;;;;;40.42;22.02;;;;;;;3.81;87.17;101404.81;4979939;28;20090;-80
2021/10/28 07:02:16;;;;;;;38.60;21.90;;;;;;;4.04;87.18;101402.13;4972905;28;20026;-80
2021/10/28 07:03:41;;;;;;;39.47;23.50;;;;;;;4.28;87.10;101394.22;4994987;28;20575;-80
2021/10/28 07:06:18;;;;;;;42.30;23.50;;;;;;;4.38;87.70;101398.91;4997186;28;20043;-80
2021/10/28 07:08:46;;;;;;;42.25;24.83;;;;;;;4.50;87.75;101403.66;4997458;28;20042;-80
2021/10/28 07:11:17;;;;;;;38.78;25.65;;;;;;;4.63;87.96;101397.97;4963901;28;20038;-80
2021/10/28 07:13:46;;;;;;;36.72;23.90;;;;;;;4.74;87.45;101385.22;4995318;28;20481;-80
2021/10/28 07:16:17;;;;;;;45.08;25.50;;;;;;;4.87;87.77;101392.59;4996958;28;20038;-80
2021/10/28 07:19:00;;;;;;;41.75;27.33;;;;;;;4.99;87.92;101389.50;4996837;28;20485;-80
2021/10/28 07:21:44;;;;;;;41.10;27.02;;;;;;;5.11;88.10;101382.03;4977459;28;20114;-80
2021/10/28 07:24:31;;;;;;;39.35;26.70;;;;;;;5.22;87.86;101380.59;4979057;28;20038;-81
2021/10/28 07:30:10;;;;;;;39.00;25.63;;;;;;;5.49;87.93;101388.34;4993031;28;20069;-80
2021/10/28 07:35:13;;;;;;;42.83;27.52;;;;;;;5.76;87.99;101383.84;4996634;28;20050;-80
2021/10/28 08:15:59;;;;;;;49.58;33.47;;;;;;;7.71;88.27;101349.84;4993199;28;20049;-81
2021/10/28 08:18:33;;;;;;;40.25;27.45;;;;;;;7.91;88.21;101347.56;4992334;28;20043;-81
2021/10/28 08:32:07;;;;;;;36.85;25.80;;;;;;;8.60;86.89;101338.22;4983361;28;20054;-80
2021/10/28 08:34:36;;;;;;;35.88;24.88;;;;;;;8.67;86.73;101337.47;4978504;28;20493;-80
2021/10/28 08:37:11;;;;;;;36.28;23.77;;;;;;;8.80;86.38;101327.09;4996271;28;20046;-80
2021/10/28 08:39:38;;;;;;;36.00;23.73;;;;;;;8.90;86.45;101324.59;4996358;28;20034;-81
2021/10/28 08:42:09;;;;;;;32.60;24.15;;;;;;;9.03;86.28;101324.78;4997162;28;20097;-81
2021/10/28 08:44:39;;;;;;;33.08;24.77;;;;;;;9.14;85.49;101317.88;4972409;28;20042;-80
2021/10/28 08:47:06;;;;;;;32.83;24.80;;;;;;;9.25;85.76;101316.28;4993083;28;20042;-80
2021/10/28 08:49:37;;;;;;;32.08;24.63;;;;;;;9.37;85.70;101319.03;4979004;28;20049;-81
2021/10/28 08:52:18;;;;;;;33.38;23.27;;;;;;;9.46;85.18;101307.75;4956947;28;20121;-80
2021/10/28 08:57:26;;;;;;;30.27;23.13;;;;;;;9.69;84.98;101307.06;4996661;28;20114;-80
2021/10/28 09:24:38;;;;;;;27.27;21.38;;;;;;;11.22;81.97;101275.56;4995911;28;20045;-80
2021/10/28 09:27:29;;;;;;;31.60;24.90;;;;;;;11.37;81.51;101260.63;4974469;28;20529;-81
2021/10/28 09:30:20;;;;;;;29.15;23.13;;;;;;;11.51;81.20;101257.13;4978028;28;20097;-81
2021/10/28 09:32:50;;;;;;;29.98;24.00;;;;;;;11.65;80.53;101257.16;4994405;28;20034;-81
2021/10/28 09:45:06;;;;;;;30.67;23.17;;;;;;;12.14;78.08;101257.19;4976388;28;20057;-81
2021/10/28 09:47:04;;;;;;;28.65;21.55;;;;;;;12.25;77.67;101258.03;4984208;28;20060;-80
2021/10/28 09:49:57;;;;;;;25.00;19.55;;;;;;;12.40;77.16;101257.16;4995622;28;20062;-80
2021/10/28 09:52:32;;;;;;;25.63;19.65;;;;;;;12.53;76.72;101252.72;4974450;28;20121;-81
2021/10/28 09:58:29;;;;;;;22.95;17.33;;;;;;;12.91;73.43;101253.44;4934821;29;20043;-81
2021/10/28 10:00:55;;;;;;;24.42;18.60;;;;;;;13.05;74.09;101249.88;4973405;28;20058;-81
2021/10/28 10:03:30;;;;;;;25.38;18.95;;;;;;;13.16;73.96;101243.59;4994363;28;20049;-81
2021/10/28 10:06:01;;;;;;;23.15;19.15;;;;;;;13.25;73.32;101245.31;4995137;28;20069;-80
2021/10/28 10:08:27;;;;;;;26.27;20.65;;;;;;;13.36;72.47;101242.63;4959645;28;20058;-80
2021/10/28 10:10:53;;;;;;;41.00;32.33;;;;;;;13.43;72.29;101239.06;4999219;28;20038;-81
2021/10/28 10:13:23;;;;;;;27.00;21.48;;;;;;;13.54;71.43;101234.56;4983243;28;20512;-81
2021/10/28 10:15:54;;;;;;;24.15;19.85;;;;;;;13.66;70.75;101227.41;4973235;28;20038;-81
2021/10/28 10:18:23;;;;;;;25.20;20.75;;;;;;;13.75;71.45;101224.69;4974892;28;20041;-80
2021/10/28 10:20:54;;;;;;;18.63;14.63;;;;;;;13.79;70.66;101232.59;4995858;28;20570;-80
2021/10/28 10:23:41;;;;;;;27.55;20.92;;;;;;;13.90;70.72;101229.84;4977687;28;20122;-81
2021/10/28 10:26:33;;;;;;;25.50;19.80;;;;;;;14.04;70.52;101216.44;4977733;28;20089;-81
2021/10/28 11:28:13;;;;;;;22.10;14.40;;;;;;;16.39;61.16;101142.09;4966819;28;20026;-81
2021/10/28 11:31:14;;;;;;;28.33;18.88;;;;;;;16.54;58.85;101132.06;4996214;28;20511;-81
2021/10/28 12:14:12;;;;;;;15.32;11.45;;;;;;;17.93;54.26;101093.16;4968976;28;20049;-81
2021/10/28 12:16:30;;;;;;;13.73;10.57;;;;;;;18.55;52.71;101079.78;4975039;28;20038;-81
2021/10/28 13:02:13;;;;;;;10.70;7.85;;;;;;;20.10;44.06;101018.31;4994872;28;20412;-81
2021/10/28 13:48:06;;;;;;;11.80;8.10;;;;;;;21.45;40.65;100977.94;4996853;28;20488;-83
2021/10/28 13:53:04;;;;;;;9.35;7.03;;;;;;;21.38;39.39;100973.81;4991248;28;20482;-84
2021/10/28 14:18:08;;;;;;;8.13;6.00;;;;;;;21.29;36.89;100976.84;5001216;28;20038;-79
2021/10/28 14:23:10;;;;;;;7.63;4.78;;;;;;;21.20;37.39;100963.84;5002156;28;20069;-79
2021/10/28 14:36:38;;;;;;;9.02;4.80;;;;;;;21.28;38.52;100959.03;5000855;28;20528;-79
2021/10/28 14:39:10;;;;;;;9.55;5.88;;;;;;;21.03;39.10;100959.19;5001292;28;20625;-80
2021/10/28 15:27:38;;;;;;;9.38;6.63;;;;;;;16.54;45.83;100949.06;4986229;28;20030;-79
2021/10/28 15:28:15;;;;;;;13.73;9.27;;;;;;;13.81;53.24;100935.47;4986604;28;20038;-79
2021/10/28 15:36:03;;;;;;;14.80;9.68;;;;;;;13.31;55.26;100943.13;5008922;28;20040;-79
2021/10/28 15:38:40;;;;;;;15.38;11.88;;;;;;;13.10;55.74;100933.59;5004888;28;20064;-78
2021/10/28 15:41:22;;;;;;;15.88;10.75;;;;;;;12.92;56.42;100926.69;5006258;28;20045;-78
2021/10/28 15:47:18;;;;;;;13.63;10.32;;;;;;;12.81;56.72;100925.94;4990799;28;20039;-78
2021/10/28 15:57:21;;;;;;;17.75;12.27;;;;;;;12.19;58.71;100922.88;5007093;28;20049;-78
2021/10/28 16:00:00;;;;;;;20.55;13.75;;;;;;;12.07;60.11;100921.16;5003054;28;20488;-78
2021/10/28 16:21:47;;;;;;;21.13;14.02;;;;;;;12.01;59.61;100922.97;4988862;28;20118;-78
2021/10/28 16:21:54;;;;;;;20.35;15.65;;;;;;;11.43;63.54;100918.81;5003989;28;20053;-78
2021/10/28 16:24:31;;;;;;;21.88;17.08;;;;;;;11.40;63.33;100917.06;4983456;28;20047;-76
2021/10/28 16:26:57;;;;;;;24.52;15.75;;;;;;;11.37;63.65;100917.06;4994460;28;20173;-76
2021/10/28 16:29:24;;;;;;;26.17;19.38;;;;;;;11.35;63.95;100917.97;4994320;28;20042;-76
2021/10/28 16:31:50;;;;;;;27.17;19.27;;;;;;;11.26;63.87;100913.56;4976702;28;20125;-76
2021/10/28 16:34:16;;;;;;;26.13;18.95;;;;;;;11.18;64.41;100912.72;4995577;28;20146;-76
2021/10/28 16:36:42;;;;;;;29.58;20.90;;;;;;;11.09;65.12;100912.75;4995019;28;20050;-76
2021/10/28 16:39:13;;;;;;;25.05;18.27;;;;;;;10.99;64.87;100908.38;4993081;28;20072;-76
2021/10/28 16:41:41;;;;;;;27.52;19.17;;;;;;;10.90;64.89;100912.78;4972860;28;20493;-75
2021/10/28 16:44:08;;;;;;;24.73;18.85;;;;;;;10.79;65.27;100911.88;4989831;28;20026;-76
2021/10/28 16:46:34;;;;;;;29.27;20.23;;;;;;;10.68;66.56;100897.84;4994718;28;20038;-76
2021/10/28 16:49:00;;;;;;;26.95;18.90;;;;;;;10.51;67.12;100897.84;4991349;28;20031;-76
2021/10/28 16:51:26;;;;;;;22.67;16.13;;;;;;;10.40;67.70;100895.22;4995326;28;20544;-76
2021/10/28 16:53:52;;;;;;;23.15;16.27;;;;;;;10.29;67.79;100900.47;4977273;28;20109;-76
2021/10/28 16:56:18;;;;;;;22.48;16.35;;;;;;;10.21;67.37;100896.91;4993703;28;20046;-76
2021/10/28 16:58:44;;;;;;;25.30;17.60;;;;;;;10.16;67.52;100903.94;4991559;28;20562;-76
2021/10/28 17:01:09;;;;;;;24.40;17.80;;;;;;;10.09;67.77;100908.31;4962478;28;20027;-76
2021/10/28 17:03:35;;;;;;;24.13;17.63;;;;;;;10.02;68.28;100917.09;4991785;28;20452;-76
2021/10/28 17:06:00;;;;;;;29.88;21.50;;;;;;;9.92;68.64;100910.03;4977083;28;20035;-76
2021/10/28 17:08:28;;;;;;;29.27;20.52;;;;;;;9.85;68.81;100918.78;4996996;28;20087;-76
2021/10/28 17:10:54;;;;;;;30.42;21.10;;;;;;;9.77;69.22;100918.81;4975456;28;20132;-76
2021/10/28 17:13:20;;;;;;;26.42;17.90;;;;;;;9.72;69.89;100923.19;4975348;28;20133;-75
2021/10/28 17:15:45;;;;;;;26.35;16.85;;;;;;;9.68;70.44;100923.16;4992390;28;20533;-76
2021/10/28 17:18:11;;;;;;;27.42;18.27;;;;;;;9.61;70.21;100920.47;4993166;28;20042;-76
2021/10/28 17:20:37;;;;;;;28.10;19.70;;;;;;;9.55;70.26;100922.22;4992955;28;20500;-75
2021/10/28 17:23:04;;;;;;;28.85;19.55;;;;;;;9.49;70.09;100925.72;4971039;28;20066;-75
2021/10/28 17:25:36;;;;;;;32.50;20.30;;;;;;;9.42;71.11;100918.63;4991500;28;20037;-77
2021/10/28 17:28:02;;;;;;;28.13;19.10;;;;;;;9.35;71.30;100927.38;4987572;28;20097;-77
2021/10/28 17:30:27;;;;;;;26.75;18.33;;;;;;;9.27;72.31;100924.69;4999870;28;20496;-77
2021/10/28 17:32:53;;;;;;;28.60;19.67;;;;;;;9.21;72.38;100922.03;4980680;28;20378;-76
2021/10/28 17:35:18;;;;;;;27.73;18.27;;;;;;;9.18;73.07;100917.63;4997907;28;20045;-77
2021/10/28 17:37:43;;;;;;;33.30;23.48;;;;;;;9.16;72.92;100914.09;4978347;28;20113;-77
2021/10/28 17:40:09;;;;;;;28.70;20.25;;;;;;;9.15;72.56;100912.34;4992806;28;20080;-76
2021/10/28 17:42:35;;;;;;;32.50;22.80;;;;;;;9.15;74.49;100909.72;4994449;28;20121;-77
2021/10/28 17:45:02;;;;;;;33.78;22.35;;;;;;;9.15;74.52;100909.72;5000136;28;20291;-76
2021/10/28 17:47:27;;;;;;;30.20;22.65;;;;;;;9.16;74.15;100907.97;5000373;28;20042;-76
2021/10/28 17:49:55;;;;;;;30.55;22.20;;;;;;;9.14;73.93;100907.06;4997131;28;20085;-76
2021/10/28 17:52:21;;;;;;;32.88;21.90;;;;;;;9.11;73.65;100907.94;4977183;28;20505;-75
2021/10/28 17:54:46;;;;;;;31.63;21.92;;;;;;;9.11;74.20;100909.69;4975941;28;20101;-76
2021/10/28 17:57:13;;;;;;;28.48;19.73;;;;;;;9.09;74.06;100907.06;4992569;28;20041;-76
2021/10/28 17:59:39;;;;;;;29.20;20.13;;;;;;;9.09;73.97;100914.97;4992566;28;20056;-76
2021/10/28 18:02:04;;;;;;;31.98;22.45;;;;;;;9.07;74.33;100911.44;4992494;28;20042;-76
2021/10/28 18:04:31;;;;;;;27.90;21.35;;;;;;;9.06;74.49;100908.78;4992144;28;20034;-76
2021/10/28 18:06:56;;;;;;;34.38;22.45;;;;;;;9.10;75.44;100911.44;4992378;28;20056;-76
2021/10/28 18:09:23;;;;;;;29.45;20.55;;;;;;;9.10;75.03;100915.84;4990526;28;20487;-76
2021/10/28 18:11:53;;;;;;;31.40;21.30;;;;;;;9.07;75.07;100913.19;4992273;28;20061;-76
2021/10/28 18:14:19;;;;;;;32.03;23.13;;;;;;;9.02;75.61;100907.91;4991721;28;20559;-76
2021/10/28 18:16:45;;;;;;;34.03;24.65;;;;;;;8.99;75.42;100902.63;4992239;28;20034;-76
2021/10/28 18:19:10;;;;;;;33.00;22.98;;;;;;;8.96;75.17;100894.69;4974850;28;20050;-76
2021/10/28 18:21:40;;;;;;;32.90;23.63;;;;;;;8.93;75.79;100892.94;4974796;28;20057;-76
2021/10/28 18:24:05;;;;;;;35.22;23.25;;;;;;;8.91;75.46;100893.78;4991423;28;20057;-76
2021/10/28 18:26:31;;;;;;;32.33;23.10;;;;;;;8.90;75.99;100894.66;4974927;28;20070;-76
2021/10/28 18:28:57;;;;;;;36.17;24.48;;;;;;;8.87;75.84;100892.88;4992553;28;20026;-77
2021/10/28 18:31:24;;;;;;;29.05;21.92;;;;;;;8.84;76.44;100897.25;4981387;28;20050;-80
2021/10/28 18:33:50;;;;;;;35.85;23.98;;;;;;;8.81;76.62;100891.97;4981221;28;20026;-80
2021/10/28 18:36:17;;;;;;;36.72;24.67;;;;;;;8.79;76.19;100886.69;5012332;28;20031;-80
2021/10/28 18:38:45;;;;;;;37.83;25.48;;;;;;;8.75;76.57;100887.50;4975338;28;20469;-81
2021/10/28 18:41:12;;;;;;;32.75;24.25;;;;;;;8.71;76.35;100894.53;4995264;28;20030;-79
2021/10/28 18:43:37;;;;;;;35.90;24.15;;;;;;;8.67;76.56;100890.13;5011838;28;20042;-79
2021/10/28 18:46:02;;;;;;;33.42;23.95;;;;;;;8.65;76.82;100896.25;4982245;28;20042;-79
2021/10/28 18:48:28;;;;;;;34.63;24.02;;;;;;;8.62;77.10;100899.72;5001148;28;20038;-79
2021/10/28 18:50:54;;;;;;;32.63;23.45;;;;;;;8.59;76.74;100891.78;4994797;28;20118;-80
2021/10/28 18:53:23;;;;;;;33.10;23.48;;;;;;;8.58;77.44;100894.44;4998600;28;20114;-79
2021/10/28 18:55:48;;;;;;;33.95;23.33;;;;;;;8.55;77.63;100895.28;4988173;28;20125;-81
2021/10/28 18:58:13;;;;;;;32.30;22.35;;;;;;;8.53;77.41;100881.22;4995169;28;20049;-80